PWSweather.com
Personal Weather Stations
Station Observations
WD4JKH
Forsyth, GA 31029

Forsyth, GA 31029

Lat: 33.033225, Lon: -83.927995

Elevation: 709

Station Type: Davis Vantage VUE

High Low Average
Temperature 85.3°F29.6°C 68.7°F20.4°C 74.8°F23.8°C
Dew Point 76.0°F24.4°C 64.0°F17.8°C 72.2°F22.3°C
Winds 10.6 mph 17.1 kmh Calm Calm 2.0 mph SSW3.2 kmh SSW
Wind Gusts 23.0 mph37.0 kmh 1.0 mph1.6 kmh 7.0 mph11.3 kmh
Humidity 97% 69% 92%
Pressure 29.95 in1014.2 mb 29.81 in1009.5 mb -
Precipitation 0.54 in13.7 mm - -
Hour Temp Dew Point Humidity Winds Wind Gusts Pressure Precip Precip Rate Daily Precip Total
12:01 AM 75.7°F24.3°C 71.9°F22.2°C 88% 2.1 mph SSW3.4 kmh SSW 9.0 mph14.5 kmh 29.94 in1013.9 mb 0.00 in0.0 mm 0.00 in0.0 mm 0.00 in0.0 mm
12:06 AM 75.6°F24.2°C 71.8°F22.1°C 88% 1.3 mph SW2.1 kmh SW 9.0 mph14.5 kmh 29.94 in1013.9 mb 0.00 in0.0 mm 0.00 in0.0 mm 0.00 in0.0 mm
12:11 AM 75.5°F24.2°C 72.0°F22.2°C 89% 1.0 mph SW1.6 kmh SW 6.0 mph9.7 kmh 29.94 in1013.9 mb 0.00 in0.0 mm 0.00 in0.0 mm 0.00 in0.0 mm
12:16 AM 75.4°F24.1°C 71.9°F22.2°C 89% 1.9 mph SSW3.1 kmh SSW 6.0 mph9.7 kmh 29.94 in1013.9 mb 0.00 in0.0 mm 0.00 in0.0 mm 0.00 in0.0 mm
12:21 AM 75.3°F24.1°C 71.8°F22.1°C 89% 1.0 mph SW1.6 kmh SW 5.0 mph8.0 kmh 29.93 in1013.5 mb 0.00 in0.0 mm 0.00 in0.0 mm 0.00 in0.0 mm
12:26 AM 75.1°F23.9°C 71.6°F22.0°C 89% 1.0 mph SW1.6 kmh SW 5.0 mph8.0 kmh 29.93 in1013.5 mb 0.00 in0.0 mm 0.00 in0.0 mm 0.00 in0.0 mm
12:31 AM 75.1°F23.9°C 72.0°F22.2°C 90% 1.7 mph SW2.7 kmh SW 5.0 mph8.0 kmh 29.93 in1013.5 mb 0.00 in0.0 mm 0.00 in0.0 mm 0.00 in0.0 mm
12:36 AM 75.1°F23.9°C 72.0°F22.2°C 90% 2.4 mph SSW3.9 kmh SSW 6.0 mph9.7 kmh 29.93 in1013.5 mb 0.00 in0.0 mm 0.00 in0.0 mm 0.00 in0.0 mm
12:41 AM 75.0°F23.9°C 71.9°F22.2°C 90% 1.9 mph SSW3.1 kmh SSW 6.0 mph9.7 kmh 29.93 in1013.5 mb 0.00 in0.0 mm 0.00 in0.0 mm 0.00 in0.0 mm
12:46 AM 75.0°F23.9°C 71.9°F22.2°C 90% 2.2 mph SW3.5 kmh SW 6.0 mph9.7 kmh 29.92 in1013.2 mb 0.00 in0.0 mm 0.00 in0.0 mm 0.00 in0.0 mm
12:50 AM 74.9°F23.8°C 71.8°F22.1°C 90% 1.6 mph S2.6 kmh S 6.0 mph9.7 kmh 29.92 in1013.2 mb 0.00 in0.0 mm 0.00 in0.0 mm 0.00 in0.0 mm
12:55 AM 74.8°F23.8°C 72.0°F22.2°C 91% 1.6 mph SSW2.6 kmh SSW 6.0 mph9.7 kmh 29.92 in1013.2 mb 0.00 in0.0 mm 0.00 in0.0 mm 0.00 in0.0 mm
01:00 AM 74.6°F23.7°C 71.8°F22.1°C 91% 1.0 mph SW1.6 kmh SW 6.0 mph9.7 kmh 29.92 in1013.2 mb 0.00 in0.0 mm 0.00 in0.0 mm 0.00 in0.0 mm
01:05 AM 74.4°F23.6°C 71.9°F22.2°C 92% 1.0 mph SSW1.6 kmh SSW 5.0 mph8.0 kmh 29.92 in1013.2 mb 0.00 in0.0 mm 0.00 in0.0 mm 0.00 in0.0 mm
01:10 AM 74.2°F23.4°C 71.7°F22.1°C 92% 2.0 mph SSW3.2 kmh SSW 4.0 mph6.4 kmh 29.91 in1012.9 mb 0.00 in0.0 mm 0.00 in0.0 mm 0.00 in0.0 mm
01:15 AM 74.0°F23.3°C 71.5°F21.9°C 92% 1.3 mph SW2.1 kmh SW 4.0 mph6.4 kmh 29.91 in1012.9 mb 0.00 in0.0 mm 0.00 in0.0 mm 0.00 in0.0 mm
01:20 AM 73.8°F23.2°C 71.6°F22.0°C 93% 1.3 mph SW2.1 kmh SW 4.0 mph6.4 kmh 29.91 in1012.9 mb 0.00 in0.0 mm 0.00 in0.0 mm 0.00 in0.0 mm
01:25 AM 73.8°F23.2°C 71.6°F22.0°C 93% 1.8 mph SW2.9 kmh SW 4.0 mph6.4 kmh 29.91 in1012.9 mb 0.00 in0.0 mm 0.00 in0.0 mm 0.00 in0.0 mm
01:30 AM 73.7°F23.2°C 71.5°F21.9°C 93% 1.8 mph S2.9 kmh S 5.0 mph8.0 kmh 29.91 in1012.9 mb 0.00 in0.0 mm 0.00 in0.0 mm 0.00 in0.0 mm
01:35 AM 73.7°F23.2°C 71.5°F21.9°C 93% 1.5 mph SW2.4 kmh SW 5.0 mph8.0 kmh 29.91 in1012.9 mb 0.00 in0.0 mm 0.00 in0.0 mm 0.00 in0.0 mm
01:40 AM 73.7°F23.2°C 71.5°F21.9°C 93% 1.7 mph S2.7 kmh S 5.0 mph8.0 kmh 29.91 in1012.9 mb 0.00 in0.0 mm 0.00 in0.0 mm 0.00 in0.0 mm
01:45 AM 73.6°F23.1°C 71.4°F21.9°C 93% 1.5 mph SW2.4 kmh SW 5.0 mph8.0 kmh 29.90 in1012.5 mb 0.00 in0.0 mm 0.00 in0.0 mm 0.00 in0.0 mm
01:50 AM 73.6°F23.1°C 71.7°F22.1°C 94% 1.9 mph SW3.1 kmh SW 4.0 mph6.4 kmh 29.90 in1012.5 mb 0.00 in0.0 mm 0.00 in0.0 mm 0.00 in0.0 mm
01:55 AM 73.6°F23.1°C 71.7°F22.1°C 94% 1.3 mph SW2.1 kmh SW 6.0 mph9.7 kmh 29.90 in1012.5 mb 0.00 in0.0 mm 0.00 in0.0 mm 0.00 in0.0 mm
02:00 AM 73.6°F23.1°C 71.8°F22.1°C 94% 1.3 mph WSW2.1 kmh WSW 6.0 mph9.7 kmh 29.90 in1012.5 mb 0.00 in0.0 mm 0.00 in0.0 mm 0.00 in0.0 mm
02:05 AM 73.6°F23.1°C 71.7°F22.1°C 94% 1.9 mph SW3.1 kmh SW 6.0 mph9.7 kmh 29.90 in1012.5 mb 0.00 in0.0 mm 0.00 in0.0 mm 0.00 in0.0 mm
02:10 AM 73.5°F23.1°C 71.7°F22.1°C 94% 1.5 mph S2.4 kmh S 6.0 mph9.7 kmh 29.89 in1012.2 mb 0.00 in0.0 mm 0.00 in0.0 mm 0.00 in0.0 mm
02:15 AM 73.4°F23.0°C 71.5°F21.9°C 94% 1.9 mph SSW3.1 kmh SSW 5.0 mph8.0 kmh 29.89 in1012.2 mb 0.00 in0.0 mm 0.00 in0.0 mm 0.00 in0.0 mm
02:20 AM 73.4°F23.0°C 71.5°F21.9°C 94% 1.4 mph SSW2.3 kmh SSW 5.0 mph8.0 kmh 29.89 in1012.2 mb 0.00 in0.0 mm 0.00 in0.0 mm 0.00 in0.0 mm
02:25 AM 73.3°F22.9°C 71.4°F21.9°C 94% 2.1 mph SW3.4 kmh SW 5.0 mph8.0 kmh 29.89 in1012.2 mb 0.00 in0.0 mm 0.00 in0.0 mm 0.00 in0.0 mm
02:30 AM 73.2°F22.9°C 71.3°F21.8°C 94% 1.3 mph SW2.1 kmh SW 5.0 mph8.0 kmh 29.89 in1012.2 mb 0.00 in0.0 mm 0.00 in0.0 mm 0.00 in0.0 mm
02:35 AM 73.2°F22.9°C 71.3°F21.8°C 94% 1.9 mph SW3.1 kmh SW 4.0 mph6.4 kmh 29.89 in1012.2 mb 0.00 in0.0 mm 0.00 in0.0 mm 0.00 in0.0 mm
02:40 AM 73.1°F22.8°C 71.2°F21.8°C 94% 1.3 mph SW2.1 kmh SW 4.0 mph6.4 kmh 29.89 in1012.2 mb 0.00 in0.0 mm 0.00 in0.0 mm 0.00 in0.0 mm
02:45 AM 73.1°F22.8°C 71.6°F22.0°C 95% 2.3 mph SW3.7 kmh SW 4.0 mph6.4 kmh 29.89 in1012.2 mb 0.00 in0.0 mm 0.00 in0.0 mm 0.00 in0.0 mm
02:50 AM 73.0°F22.8°C 71.5°F21.9°C 95% 1.8 mph SW2.9 kmh SW 4.0 mph6.4 kmh 29.89 in1012.2 mb 0.00 in0.0 mm 0.00 in0.0 mm 0.00 in0.0 mm
02:55 AM 73.0°F22.8°C 71.5°F21.9°C 95% 1.4 mph SW2.3 kmh SW 4.0 mph6.4 kmh 29.89 in1012.2 mb 0.00 in0.0 mm 0.00 in0.0 mm 0.00 in0.0 mm
03:00 AM 73.0°F22.8°C 71.5°F21.9°C 95% 1.1 mph SW1.8 kmh SW 5.0 mph8.0 kmh 29.89 in1012.2 mb 0.00 in0.0 mm 0.00 in0.0 mm 0.00 in0.0 mm
03:05 AM 73.0°F22.8°C 71.5°F21.9°C 95% 1.1 mph SW1.8 kmh SW 5.0 mph8.0 kmh 29.89 in1012.2 mb 0.00 in0.0 mm 0.00 in0.0 mm 0.00 in0.0 mm
03:10 AM 73.0°F22.8°C 71.5°F21.9°C 95% 1.3 mph SW2.1 kmh SW 5.0 mph8.0 kmh 29.88 in1011.9 mb 0.00 in0.0 mm 0.00 in0.0 mm 0.00 in0.0 mm
03:15 AM 72.9°F22.7°C 71.4°F21.9°C 95% 1.9 mph SW3.1 kmh SW 5.0 mph8.0 kmh 29.88 in1011.9 mb 0.00 in0.0 mm 0.00 in0.0 mm 0.00 in0.0 mm
03:20 AM 72.9°F22.7°C 71.4°F21.9°C 95% 1.6 mph SW2.6 kmh SW 4.0 mph6.4 kmh 29.88 in1011.9 mb 0.00 in0.0 mm 0.00 in0.0 mm 0.00 in0.0 mm
03:25 AM 72.9°F22.7°C 71.4°F21.9°C 95% 2.5 mph SW4.0 kmh SW 5.0 mph8.0 kmh 29.88 in1011.9 mb 0.00 in0.0 mm 0.00 in0.0 mm 0.00 in0.0 mm
03:30 AM 72.8°F22.7°C 71.3°F21.8°C 95% 1.2 mph SW1.9 kmh SW 5.0 mph8.0 kmh 29.88 in1011.9 mb 0.00 in0.0 mm 0.00 in0.0 mm 0.00 in0.0 mm
03:35 AM 72.8°F22.7°C 71.3°F21.8°C 95% 1.7 mph SW2.7 kmh SW 5.0 mph8.0 kmh 29.89 in1012.2 mb 0.00 in0.0 mm 0.00 in0.0 mm 0.00 in0.0 mm
03:40 AM 72.8°F22.7°C 71.6°F22.0°C 96% 1.9 mph SW3.1 kmh SW 5.0 mph8.0 kmh 29.88 in1011.9 mb 0.00 in0.0 mm 0.00 in0.0 mm 0.00 in0.0 mm
03:45 AM 72.7°F22.6°C 71.5°F21.9°C 96% 1.7 mph SSW2.7 kmh SSW 4.0 mph6.4 kmh 29.88 in1011.9 mb 0.00 in0.0 mm 0.00 in0.0 mm 0.00 in0.0 mm
03:50 AM 72.6°F22.6°C 71.4°F21.9°C 96% 1.2 mph SSW1.9 kmh SSW 4.0 mph6.4 kmh 29.88 in1011.9 mb 0.00 in0.0 mm 0.00 in0.0 mm 0.00 in0.0 mm
03:55 AM 72.4°F22.4°C 71.2°F21.8°C 96% 1.0 mph SW1.6 kmh SW 4.0 mph6.4 kmh 29.88 in1011.9 mb 0.00 in0.0 mm 0.00 in0.0 mm 0.00 in0.0 mm
04:00 AM 72.3°F22.4°C 71.1°F21.7°C 96% 1.2 mph SW1.9 kmh SW 2.0 mph3.2 kmh 29.88 in1011.9 mb 0.00 in0.0 mm 0.00 in0.0 mm 0.00 in0.0 mm
04:05 AM 72.2°F22.3°C 71.0°F21.7°C 96% 2.0 mph SW3.2 kmh SW 3.0 mph4.8 kmh 29.88 in1011.9 mb 0.00 in0.0 mm 0.00 in0.0 mm 0.00 in0.0 mm
04:10 AM 72.2°F22.3°C 71.0°F21.7°C 96% 1.6 mph SW2.6 kmh SW 3.0 mph4.8 kmh 29.88 in1011.9 mb 0.00 in0.0 mm 0.00 in0.0 mm 0.00 in0.0 mm
04:15 AM 72.2°F22.3°C 71.0°F21.7°C 96% 1.2 mph SW1.9 kmh SW 3.0 mph4.8 kmh 29.88 in1011.9 mb 0.00 in0.0 mm 0.00 in0.0 mm 0.00 in0.0 mm
04:20 AM 72.2°F22.3°C 71.0°F21.7°C 96% Calm Calm 3.0 mph4.8 kmh 29.88 in1011.9 mb 0.00 in0.0 mm 0.00 in0.0 mm 0.00 in0.0 mm
04:25 AM 72.2°F22.3°C 71.0°F21.7°C 96% 1.4 mph SW2.3 kmh SW 3.0 mph4.8 kmh 29.88 in1011.9 mb 0.00 in0.0 mm 0.00 in0.0 mm 0.00 in0.0 mm
04:30 AM 72.1°F22.3°C 70.9°F21.6°C 96% 1.7 mph SW2.7 kmh SW 4.0 mph6.4 kmh 29.88 in1011.9 mb 0.00 in0.0 mm 0.00 in0.0 mm 0.00 in0.0 mm
04:35 AM 72.1°F22.3°C 71.2°F21.8°C 97% 1.9 mph SW3.1 kmh SW 4.0 mph6.4 kmh 29.88 in1011.9 mb 0.00 in0.0 mm 0.00 in0.0 mm 0.00 in0.0 mm
04:40 AM 72.1°F22.3°C 71.2°F21.8°C 97% 1.5 mph SW2.4 kmh SW 4.0 mph6.4 kmh 29.88 in1011.9 mb 0.00 in0.0 mm 0.00 in0.0 mm 0.00 in0.0 mm
04:45 AM 72.1°F22.3°C 71.2°F21.8°C 97% 1.1 mph WSW1.8 kmh WSW 4.0 mph6.4 kmh 29.88 in1011.9 mb 0.00 in0.0 mm 0.00 in0.0 mm 0.00 in0.0 mm
04:50 AM 72.1°F22.3°C 71.2°F21.8°C 97% Calm Calm 3.0 mph4.8 kmh 29.88 in1011.9 mb 0.00 in0.0 mm 0.00 in0.0 mm 0.00 in0.0 mm
04:55 AM 72.1°F22.3°C 71.2°F21.8°C 97% 1.0 mph SW1.6 kmh SW 3.0 mph4.8 kmh 29.88 in1011.9 mb 0.00 in0.0 mm 0.00 in0.0 mm 0.00 in0.0 mm
05:00 AM 72.0°F22.2°C 71.1°F21.7°C 97% 1.1 mph SW1.8 kmh SW 3.0 mph4.8 kmh 29.88 in1011.9 mb 0.00 in0.0 mm 0.00 in0.0 mm 0.00 in0.0 mm
05:05 AM 72.1°F22.3°C 71.2°F21.8°C 97% 1.4 mph SW2.3 kmh SW 2.0 mph3.2 kmh 29.88 in1011.9 mb 0.00 in0.0 mm 0.00 in0.0 mm 0.00 in0.0 mm
05:10 AM 72.1°F22.3°C 71.2°F21.8°C 97% 1.0 mph SW1.6 kmh SW 2.0 mph3.2 kmh 29.88 in1011.9 mb 0.00 in0.0 mm 0.00 in0.0 mm 0.00 in0.0 mm
05:15 AM 72.1°F22.3°C 71.2°F21.8°C 97% 1.7 mph SW2.7 kmh SW 5.0 mph8.0 kmh 29.88 in1011.9 mb 0.00 in0.0 mm 0.00 in0.0 mm 0.00 in0.0 mm
05:20 AM 72.1°F22.3°C 71.2°F21.8°C 97% 1.4 mph WSW2.3 kmh WSW 5.0 mph8.0 kmh 29.88 in1011.9 mb 0.00 in0.0 mm 0.00 in0.0 mm 0.00 in0.0 mm
05:25 AM 72.1°F22.3°C 71.2°F21.8°C 97% 1.3 mph SW2.1 kmh SW 5.0 mph8.0 kmh 29.89 in1012.2 mb 0.00 in0.0 mm 0.00 in0.0 mm 0.00 in0.0 mm
05:30 AM 72.1°F22.3°C 71.2°F21.8°C 97% 1.3 mph WSW2.1 kmh WSW 5.0 mph8.0 kmh 29.89 in1012.2 mb 0.00 in0.0 mm 0.00 in0.0 mm 0.00 in0.0 mm
05:35 AM 72.1°F22.3°C 71.2°F21.8°C 97% 1.6 mph SW2.6 kmh SW 4.0 mph6.4 kmh 29.89 in1012.2 mb 0.00 in0.0 mm 0.00 in0.0 mm 0.00 in0.0 mm
05:40 AM 72.1°F22.3°C 71.2°F21.8°C 97% 1.8 mph WSW2.9 kmh WSW 4.0 mph6.4 kmh 29.89 in1012.2 mb 0.00 in0.0 mm 0.00 in0.0 mm 0.00 in0.0 mm
05:45 AM 72.1°F22.3°C 71.2°F21.8°C 97% 1.3 mph SW2.1 kmh SW 4.0 mph6.4 kmh 29.89 in1012.2 mb 0.00 in0.0 mm 0.00 in0.0 mm 0.00 in0.0 mm
05:49 AM 72.1°F22.3°C 71.2°F21.8°C 97% 1.0 mph SW1.6 kmh SW 4.0 mph6.4 kmh 29.89 in1012.2 mb 0.00 in0.0 mm 0.00 in0.0 mm 0.00 in0.0 mm
05:54 AM 72.1°F22.3°C 71.2°F21.8°C 97% 1.0 mph SW1.6 kmh SW 4.0 mph6.4 kmh 29.89 in1012.2 mb 0.00 in0.0 mm 0.00 in0.0 mm 0.00 in0.0 mm
05:59 AM 72.1°F22.3°C 71.2°F21.8°C 97% 1.4 mph SW2.3 kmh SW 3.0 mph4.8 kmh 29.89 in1012.2 mb 0.00 in0.0 mm 0.00 in0.0 mm 0.00 in0.0 mm
06:04 AM 72.1°F22.3°C 71.2°F21.8°C 97% 1.6 mph WSW2.6 kmh WSW 4.0 mph6.4 kmh 29.89 in1012.2 mb 0.00 in0.0 mm 0.00 in0.0 mm 0.00 in0.0 mm
06:09 AM 72.3°F22.4°C 71.4°F21.9°C 97% 1.8 mph SW2.9 kmh SW 4.0 mph6.4 kmh 29.89 in1012.2 mb 0.00 in0.0 mm 0.00 in0.0 mm 0.00 in0.0 mm
06:14 AM 72.4°F22.4°C 71.5°F21.9°C 97% 1.3 mph SW2.1 kmh SW 4.0 mph6.4 kmh 29.90 in1012.5 mb 0.00 in0.0 mm 0.00 in0.0 mm 0.00 in0.0 mm
06:19 AM 72.6°F22.6°C 71.7°F22.1°C 97% 1.3 mph SW2.1 kmh SW 4.0 mph6.4 kmh 29.90 in1012.5 mb 0.00 in0.0 mm 0.00 in0.0 mm 0.00 in0.0 mm
06:24 AM 72.8°F22.7°C 71.6°F22.0°C 96% 1.4 mph SW2.3 kmh SW 3.0 mph4.8 kmh 29.90 in1012.5 mb 0.00 in0.0 mm 0.00 in0.0 mm 0.00 in0.0 mm
06:29 AM 73.0°F22.8°C 71.8°F22.1°C 96% 1.6 mph SW2.6 kmh SW 4.0 mph6.4 kmh 29.90 in1012.5 mb 0.00 in0.0 mm 0.00 in0.0 mm 0.00 in0.0 mm
06:34 AM 73.3°F22.9°C 72.1°F22.3°C 96% 2.0 mph SW3.2 kmh SW 4.0 mph6.4 kmh 29.90 in1012.5 mb 0.00 in0.0 mm 0.00 in0.0 mm 0.00 in0.0 mm
06:39 AM 73.5°F23.1°C 72.3°F22.4°C 96% Calm Calm 4.0 mph6.4 kmh 29.90 in1012.5 mb 0.00 in0.0 mm 0.00 in0.0 mm 0.00 in0.0 mm
06:44 AM 73.7°F23.2°C 72.1°F22.3°C 95% 1.5 mph SSE2.4 kmh SSE 4.0 mph6.4 kmh 29.90 in1012.5 mb 0.00 in0.0 mm 0.00 in0.0 mm 0.00 in0.0 mm
06:49 AM 73.7°F23.2°C 72.1°F22.3°C 95% 1.5 mph SW2.4 kmh SW 4.0 mph6.4 kmh 29.90 in1012.5 mb 0.00 in0.0 mm 0.00 in0.0 mm 0.00 in0.0 mm
06:54 AM 73.7°F23.2°C 72.1°F22.3°C 95% 1.0 mph SSW1.6 kmh SSW 3.0 mph4.8 kmh 29.90 in1012.5 mb 0.00 in0.0 mm 0.00 in0.0 mm 0.00 in0.0 mm
06:59 AM 73.9°F23.3°C 72.3°F22.4°C 95% 1.2 mph SW1.9 kmh SW 3.0 mph4.8 kmh 29.91 in1012.9 mb 0.00 in0.0 mm 0.00 in0.0 mm 0.00 in0.0 mm
07:04 AM 74.1°F23.4°C 72.5°F22.5°C 95% 1.8 mph SW2.9 kmh SW 4.0 mph6.4 kmh 29.91 in1012.9 mb 0.00 in0.0 mm 0.00 in0.0 mm 0.00 in0.0 mm
07:09 AM 74.3°F23.5°C 72.4°F22.4°C 94% 1.6 mph SW2.6 kmh SW 4.0 mph6.4 kmh 29.91 in1012.9 mb 0.00 in0.0 mm 0.00 in0.0 mm 0.00 in0.0 mm
07:14 AM 74.3°F23.5°C 72.5°F22.5°C 94% 2.6 mph SW4.2 kmh SW 6.0 mph9.7 kmh 29.91 in1012.9 mb 0.00 in0.0 mm 0.00 in0.0 mm 0.00 in0.0 mm
07:19 AM 74.4°F23.6°C 72.6°F22.6°C 94% 1.9 mph SW3.1 kmh SW 6.0 mph9.7 kmh 29.91 in1012.9 mb 0.00 in0.0 mm 0.00 in0.0 mm 0.00 in0.0 mm
07:24 AM 74.6°F23.7°C 72.8°F22.7°C 94% 1.9 mph SW3.1 kmh SW 6.0 mph9.7 kmh 29.90 in1012.5 mb 0.00 in0.0 mm 0.00 in0.0 mm 0.00 in0.0 mm
07:29 AM 74.9°F23.8°C 73.0°F22.8°C 94% 2.2 mph W3.5 kmh W 6.0 mph9.7 kmh 29.90 in1012.5 mb 0.00 in0.0 mm 0.00 in0.0 mm 0.00 in0.0 mm
07:34 AM 74.9°F23.8°C 72.7°F22.6°C 93% 2.3 mph SW3.7 kmh SW 7.0 mph11.3 kmh 29.90 in1012.5 mb 0.00 in0.0 mm 0.00 in0.0 mm 0.00 in0.0 mm
07:39 AM 75.3°F24.1°C 73.1°F22.8°C 93% 1.7 mph SW2.7 kmh SW 7.0 mph11.3 kmh 29.90 in1012.5 mb 0.00 in0.0 mm 0.00 in0.0 mm 0.00 in0.0 mm
07:44 AM 75.6°F24.2°C 73.1°F22.8°C 92% 4.1 mph SW6.6 kmh SW 8.0 mph12.9 kmh 29.90 in1012.5 mb 0.00 in0.0 mm 0.00 in0.0 mm 0.00 in0.0 mm
07:49 AM 76.0°F24.4°C 73.5°F23.1°C 92% 1.5 mph SSW2.4 kmh SSW 8.0 mph12.9 kmh 29.90 in1012.5 mb 0.00 in0.0 mm 0.00 in0.0 mm 0.00 in0.0 mm
07:54 AM 76.2°F24.6°C 73.4°F23.0°C 91% 2.1 mph WSW3.4 kmh WSW 8.0 mph12.9 kmh 29.91 in1012.9 mb 0.00 in0.0 mm 0.00 in0.0 mm 0.00 in0.0 mm
07:59 AM 76.2°F24.6°C 73.4°F23.0°C 91% 3.2 mph WSW5.1 kmh WSW 8.0 mph12.9 kmh 29.91 in1012.9 mb 0.00 in0.0 mm 0.00 in0.0 mm 0.00 in0.0 mm
08:04 AM 76.3°F24.6°C 73.5°F23.1°C 91% 3.0 mph WSW4.8 kmh WSW 8.0 mph12.9 kmh 29.91 in1012.9 mb 0.00 in0.0 mm 0.00 in0.0 mm 0.00 in0.0 mm
08:09 AM 76.5°F24.7°C 73.3°F22.9°C 90% 2.3 mph W3.7 kmh W 8.0 mph12.9 kmh 29.91 in1012.9 mb 0.00 in0.0 mm 0.00 in0.0 mm 0.00 in0.0 mm
08:14 AM 76.6°F24.8°C 73.4°F23.0°C 90% 2.1 mph WSW3.4 kmh WSW 9.0 mph14.5 kmh 29.91 in1012.9 mb 0.00 in0.0 mm 0.00 in0.0 mm 0.00 in0.0 mm
08:19 AM 76.8°F24.9°C 73.6°F23.1°C 90% 2.8 mph SW4.5 kmh SW 12.0 mph19.3 kmh 29.91 in1012.9 mb 0.00 in0.0 mm 0.00 in0.0 mm 0.00 in0.0 mm
08:24 AM 77.1°F25.1°C 73.6°F23.1°C 89% 3.0 mph WSW4.8 kmh WSW 12.0 mph19.3 kmh 29.91 in1012.9 mb 0.00 in0.0 mm 0.00 in0.0 mm 0.00 in0.0 mm
08:29 AM 77.2°F25.1°C 73.4°F23.0°C 88% 2.1 mph WSW3.4 kmh WSW 12.0 mph19.3 kmh 29.91 in1012.9 mb 0.00 in0.0 mm 0.00 in0.0 mm 0.00 in0.0 mm
08:34 AM 77.4°F25.2°C 73.9°F23.3°C 89% 3.3 mph SW5.3 kmh SW 12.0 mph19.3 kmh 29.91 in1012.9 mb 0.00 in0.0 mm 0.00 in0.0 mm 0.00 in0.0 mm
08:39 AM 77.6°F25.3°C 73.8°F23.2°C 88% 3.4 mph SW5.5 kmh SW 9.0 mph14.5 kmh 29.91 in1012.9 mb 0.00 in0.0 mm 0.00 in0.0 mm 0.00 in0.0 mm
08:44 AM 78.3°F25.7°C 74.5°F23.6°C 88% 1.0 mph SE1.6 kmh SE 9.0 mph14.5 kmh 29.91 in1012.9 mb 0.00 in0.0 mm 0.00 in0.0 mm 0.00 in0.0 mm
08:49 AM 78.9°F26.1°C 74.4°F23.6°C 86% 1.6 mph WSW2.6 kmh WSW 7.0 mph11.3 kmh 29.91 in1012.9 mb 0.00 in0.0 mm 0.00 in0.0 mm 0.00 in0.0 mm
08:54 AM 79.0°F26.1°C 74.5°F23.6°C 86% 1.7 mph SW2.7 kmh SW 7.0 mph11.3 kmh 29.91 in1012.9 mb 0.00 in0.0 mm 0.00 in0.0 mm 0.00 in0.0 mm
08:59 AM 78.8°F26.0°C 74.0°F23.3°C 85% 1.8 mph SW2.9 kmh SW 5.0 mph8.0 kmh 29.91 in1012.9 mb 0.00 in0.0 mm 0.00 in0.0 mm 0.00 in0.0 mm
09:04 AM 79.0°F26.1°C 74.8°F23.8°C 87% 1.0 mph SSW1.6 kmh SSW 5.0 mph8.0 kmh 29.91 in1012.9 mb 0.00 in0.0 mm 0.00 in0.0 mm 0.00 in0.0 mm
09:09 AM 79.3°F26.3°C 74.4°F23.6°C 85% 1.8 mph SW2.9 kmh SW 5.0 mph8.0 kmh 29.90 in1012.5 mb 0.00 in0.0 mm 0.00 in0.0 mm 0.00 in0.0 mm
09:14 AM 79.3°F26.3°C 74.4°F23.6°C 85% 2.8 mph SW4.5 kmh SW 6.0 mph9.7 kmh 29.90 in1012.5 mb 0.00 in0.0 mm 0.00 in0.0 mm 0.00 in0.0 mm
09:19 AM 78.7°F25.9°C 73.8°F23.2°C 85% 4.0 mph SW6.4 kmh SW 10.0 mph16.1 kmh 29.91 in1012.9 mb 0.00 in0.0 mm 0.00 in0.0 mm 0.00 in0.0 mm
09:24 AM 78.4°F25.8°C 73.9°F23.3°C 86% 4.1 mph SW6.6 kmh SW 10.0 mph16.1 kmh 29.91 in1012.9 mb 0.00 in0.0 mm 0.00 in0.0 mm 0.00 in0.0 mm
09:29 AM 78.3°F25.7°C 73.8°F23.2°C 86% 2.7 mph SW4.3 kmh SW 10.0 mph16.1 kmh 29.91 in1012.9 mb 0.00 in0.0 mm 0.00 in0.0 mm 0.00 in0.0 mm
09:34 AM 78.6°F25.9°C 74.4°F23.6°C 87% 2.4 mph SW3.9 kmh SW 10.0 mph16.1 kmh 29.90 in1012.5 mb 0.00 in0.0 mm 0.00 in0.0 mm 0.00 in0.0 mm
09:39 AM 78.7°F25.9°C 74.2°F23.4°C 86% 2.4 mph SW3.9 kmh SW 9.0 mph14.5 kmh 29.90 in1012.5 mb 0.00 in0.0 mm 0.00 in0.0 mm 0.00 in0.0 mm
09:44 AM 78.6°F25.9°C 74.1°F23.4°C 86% 2.7 mph SW4.3 kmh SW 8.0 mph12.9 kmh 29.90 in1012.5 mb 0.00 in0.0 mm 0.00 in0.0 mm 0.00 in0.0 mm
09:49 AM 79.0°F26.1°C 74.5°F23.6°C 86% 1.3 mph SW2.1 kmh SW 8.0 mph12.9 kmh 29.90 in1012.5 mb 0.00 in0.0 mm 0.00 in0.0 mm 0.00 in0.0 mm
09:55 AM 79.2°F26.2°C 74.3°F23.5°C 85% 4.1 mph SW6.6 kmh SW 9.0 mph14.5 kmh 29.90 in1012.5 mb 0.00 in0.0 mm 0.00 in0.0 mm 0.00 in0.0 mm
10:00 AM 79.5°F26.4°C 74.6°F23.7°C 85% 2.0 mph SW3.2 kmh SW 9.0 mph14.5 kmh 29.90 in1012.5 mb 0.00 in0.0 mm 0.00 in0.0 mm 0.00 in0.0 mm
10:05 AM 79.8°F26.6°C 74.6°F23.7°C 84% 2.7 mph SW4.3 kmh SW 9.0 mph14.5 kmh 29.90 in1012.5 mb 0.00 in0.0 mm 0.00 in0.0 mm 0.00 in0.0 mm
10:10 AM 80.2°F26.8°C 74.6°F23.7°C 83% 2.7 mph SW4.3 kmh SW 9.0 mph14.5 kmh 29.90 in1012.5 mb 0.00 in0.0 mm 0.00 in0.0 mm 0.00 in0.0 mm
10:15 AM 80.5°F26.9°C 74.9°F23.8°C 83% 2.4 mph SW3.9 kmh SW 9.0 mph14.5 kmh 29.90 in1012.5 mb 0.00 in0.0 mm 0.00 in0.0 mm 0.00 in0.0 mm
10:20 AM 80.9°F27.2°C 75.0°F23.9°C 82% 3.4 mph SW5.5 kmh SW 11.0 mph17.7 kmh 29.90 in1012.5 mb 0.00 in0.0 mm 0.00 in0.0 mm 0.00 in0.0 mm
10:25 AM 80.8°F27.1°C 74.5°F23.6°C 81% 5.2 mph SW8.4 kmh SW 11.0 mph17.7 kmh 29.89 in1012.2 mb 0.00 in0.0 mm 0.00 in0.0 mm 0.00 in0.0 mm
10:30 AM 80.7°F27.1°C 74.8°F23.8°C 82% 1.3 mph S2.1 kmh S 11.0 mph17.7 kmh 29.89 in1012.2 mb 0.00 in0.0 mm 0.00 in0.0 mm 0.00 in0.0 mm
10:35 AM 81.2°F27.3°C 74.8°F23.8°C 81% 3.2 mph S5.1 kmh S 11.0 mph17.7 kmh 29.89 in1012.2 mb 0.00 in0.0 mm 0.00 in0.0 mm 0.00 in0.0 mm
10:40 AM 81.8°F27.7°C 75.1°F23.9°C 80% 2.8 mph SW4.5 kmh SW 11.0 mph17.7 kmh 29.88 in1011.9 mb 0.00 in0.0 mm 0.00 in0.0 mm 0.00 in0.0 mm
10:45 AM 82.7°F28.2°C 76.0°F24.4°C 80% 2.5 mph SW4.0 kmh SW 8.0 mph12.9 kmh 29.88 in1011.9 mb 0.00 in0.0 mm 0.00 in0.0 mm 0.00 in0.0 mm
10:48 AM 83.1°F28.4°C 75.7°F24.3°C 78% 1.8 mph S2.9 kmh S 8.0 mph12.9 kmh 29.88 in1011.9 mb 0.00 in0.0 mm 0.00 in0.0 mm 0.00 in0.0 mm
10:54 AM 83.0°F28.3°C 74.8°F23.8°C 76% 2.2 mph SW3.5 kmh SW 7.0 mph11.3 kmh 29.88 in1011.9 mb 0.00 in0.0 mm 0.00 in0.0 mm 0.00 in0.0 mm
10:59 AM 82.8°F28.2°C 75.4°F24.1°C 78% 2.8 mph S4.5 kmh S 8.0 mph12.9 kmh 29.88 in1011.9 mb 0.00 in0.0 mm 0.00 in0.0 mm 0.00 in0.0 mm
11:04 AM 82.9°F28.3°C 75.5°F24.2°C 78% 3.0 mph SW4.8 kmh SW 10.0 mph16.1 kmh 29.87 in1011.5 mb 0.00 in0.0 mm 0.00 in0.0 mm 0.00 in0.0 mm
11:09 AM 83.4°F28.6°C 75.2°F24.0°C 76% 2.6 mph S4.2 kmh S 10.0 mph16.1 kmh 29.87 in1011.5 mb 0.00 in0.0 mm 0.00 in0.0 mm 0.00 in0.0 mm
11:14 AM 83.4°F28.6°C 75.2°F24.0°C 76% 1.4 mph SSW2.3 kmh SSW 10.0 mph16.1 kmh 29.87 in1011.5 mb 0.00 in0.0 mm 0.00 in0.0 mm 0.00 in0.0 mm
11:19 AM 83.4°F28.6°C 75.4°F24.1°C 77% 2.9 mph SW4.7 kmh SW 10.0 mph16.1 kmh 29.87 in1011.5 mb 0.00 in0.0 mm 0.00 in0.0 mm 0.00 in0.0 mm
11:24 AM 83.7°F28.7°C 75.9°F24.4°C 77% 1.7 mph SW2.7 kmh SW 10.0 mph16.1 kmh 29.86 in1011.2 mb 0.00 in0.0 mm 0.00 in0.0 mm 0.00 in0.0 mm
11:29 AM 84.3°F29.1°C 75.3°F24.1°C 74% 3.5 mph SW5.6 kmh SW 10.0 mph16.1 kmh 29.86 in1011.2 mb 0.00 in0.0 mm 0.00 in0.0 mm 0.00 in0.0 mm
11:34 AM 84.5°F29.2°C 75.5°F24.2°C 74% 3.1 mph SW5.0 kmh SW 10.0 mph16.1 kmh 29.86 in1011.2 mb 0.00 in0.0 mm 0.00 in0.0 mm 0.00 in0.0 mm
11:39 AM 84.4°F29.1°C 75.0°F23.9°C 73% 1.5 mph SW2.4 kmh SW 10.0 mph16.1 kmh 29.85 in1010.8 mb 0.00 in0.0 mm 0.00 in0.0 mm 0.00 in0.0 mm
11:44 AM 84.3°F29.1°C 75.3°F24.1°C 74% 3.3 mph SW5.3 kmh SW 10.0 mph16.1 kmh 29.85 in1010.8 mb 0.00 in0.0 mm 0.00 in0.0 mm 0.00 in0.0 mm
11:49 AM 84.3°F29.1°C 75.3°F24.1°C 74% 4.4 mph SW7.1 kmh SW 11.0 mph17.7 kmh 29.85 in1010.8 mb 0.00 in0.0 mm 0.00 in0.0 mm 0.00 in0.0 mm
11:54 AM 84.7°F29.3°C 74.9°F23.8°C 72% 4.5 mph SW7.2 kmh SW 12.0 mph19.3 kmh 29.85 in1010.8 mb 0.00 in0.0 mm 0.00 in0.0 mm 0.00 in0.0 mm
11:59 AM 84.9°F29.4°C 74.9°F23.8°C 72% 2.5 mph SW4.0 kmh SW 12.0 mph19.3 kmh 29.85 in1010.8 mb 0.00 in0.0 mm 0.00 in0.0 mm 0.00 in0.0 mm
12:04 PM 85.0°F29.4°C 75.2°F24.0°C 72% 3.2 mph SSW5.1 kmh SSW 12.0 mph19.3 kmh 29.85 in1010.8 mb 0.00 in0.0 mm 0.00 in0.0 mm 0.00 in0.0 mm
12:09 PM 84.7°F29.3°C 74.9°F23.8°C 72% 3.1 mph S5.0 kmh S 12.0 mph19.3 kmh 29.85 in1010.8 mb 0.00 in0.0 mm 0.00 in0.0 mm 0.00 in0.0 mm
12:14 PM 84.8°F29.3°C 75.0°F23.9°C 72% 3.0 mph SSW4.8 kmh SSW 9.0 mph14.5 kmh 29.84 in1010.5 mb 0.00 in0.0 mm 0.00 in0.0 mm 0.00 in0.0 mm
12:19 PM 85.0°F29.4°C 75.0°F23.9°C 72% 4.7 mph SW7.6 kmh SW 17.0 mph27.4 kmh 29.84 in1010.5 mb 0.00 in0.0 mm 0.00 in0.0 mm 0.00 in0.0 mm
12:24 PM 85.3°F29.6°C 74.2°F23.4°C 69% 4.6 mph SW7.4 kmh SW 17.0 mph27.4 kmh 29.84 in1010.5 mb 0.00 in0.0 mm 0.00 in0.0 mm 0.00 in0.0 mm
12:29 PM 84.8°F29.3°C 74.6°F23.7°C 71% 2.6 mph W4.2 kmh W 17.0 mph27.4 kmh 29.86 in1011.2 mb 0.00 in0.0 mm 0.00 in0.0 mm 0.00 in0.0 mm
12:34 PM 81.8°F27.7°C 73.7°F23.2°C 76% 8.8 mph WNW14.2 kmh WNW 18.0 mph29.0 kmh 29.87 in1011.5 mb 0.04 in1.0 mm 0.48 in12.2 mm 0.04 in1.0 mm
12:39 PM 76.4°F24.7°C 70.9°F21.6°C 83% 6.7 mph WNW10.8 kmh WNW 23.0 mph37.0 kmh 29.86 in1011.2 mb 0.21 in5.3 mm 2.04 in51.8 mm 0.22 in5.6 mm
12:44 PM 73.5°F23.1°C 70.1°F21.2°C 89% 3.5 mph NW5.6 kmh NW 23.0 mph37.0 kmh 29.87 in1011.5 mb 0.41 in10.4 mm 2.40 in61.0 mm 0.41 in10.4 mm
12:49 PM 72.6°F22.6°C 70.1°F21.2°C 92% 2.7 mph NW4.3 kmh NW 23.0 mph37.0 kmh 29.87 in1011.5 mb 0.41 in10.4 mm 0.00 in0.0 mm 0.41 in10.4 mm
12:54 PM 72.3°F22.4°C 70.1°F21.2°C 93% 1.3 mph W2.1 kmh W 23.0 mph37.0 kmh 29.87 in1011.5 mb 0.41 in10.4 mm 0.00 in0.0 mm 0.41 in10.4 mm
12:59 PM 72.3°F22.4°C 70.4°F21.3°C 94% 2.6 mph WSW4.2 kmh WSW 14.0 mph22.5 kmh 29.88 in1011.9 mb 0.41 in10.4 mm 0.00 in0.0 mm 0.41 in10.4 mm
01:04 PM 72.3°F22.4°C 70.4°F21.3°C 94% 1.2 mph W1.9 kmh W 8.0 mph12.9 kmh 29.88 in1011.9 mb 0.42 in10.7 mm 0.01 in0.3 mm 0.42 in10.7 mm
01:09 PM 72.1°F22.3°C 70.6°F21.4°C 95% 2.9 mph W4.7 kmh W 7.0 mph11.3 kmh 29.88 in1011.9 mb 0.42 in10.7 mm 0.00 in0.0 mm 0.42 in10.7 mm
01:14 PM 72.1°F22.3°C 70.6°F21.4°C 95% 1.4 mph WSW2.3 kmh WSW 7.0 mph11.3 kmh 29.88 in1011.9 mb 0.42 in10.7 mm 0.00 in0.0 mm 0.42 in10.7 mm
01:19 PM 72.0°F22.2°C 70.5°F21.4°C 95% 1.0 mph W1.6 kmh W 6.0 mph9.7 kmh 29.88 in1011.9 mb 0.45 in11.4 mm 0.36 in9.1 mm 0.45 in11.4 mm
01:24 PM 72.1°F22.3°C 70.6°F21.4°C 95% 1.0 mph W1.6 kmh W 6.0 mph9.7 kmh 29.88 in1011.9 mb 0.49 in12.4 mm 0.48 in12.2 mm 0.49 in12.4 mm
01:29 PM 72.1°F22.3°C 70.9°F21.6°C 96% 1.2 mph W1.9 kmh W 5.0 mph8.0 kmh 29.88 in1011.9 mb 0.50 in12.7 mm 0.12 in3.0 mm 0.50 in12.7 mm
01:34 PM 72.2°F22.3°C 71.0°F21.7°C 96% Calm Calm 3.0 mph4.8 kmh 29.87 in1011.5 mb 0.47 in11.9 mm 0.00 in0.0 mm 0.51 in13.0 mm
01:39 PM 72.1°F22.3°C 70.9°F21.6°C 96% 1.0 mph WNW1.6 kmh WNW 2.0 mph3.2 kmh 29.87 in1011.5 mb 0.29 in7.4 mm 0.00 in0.0 mm 0.51 in13.0 mm
01:44 PM 72.2°F22.3°C 71.0°F21.7°C 96% 1.0 mph WNW1.6 kmh WNW 2.0 mph3.2 kmh 29.86 in1011.2 mb 0.10 in2.5 mm 0.00 in0.0 mm 0.51 in13.0 mm
01:49 PM 72.3°F22.4°C 71.1°F21.7°C 96% 1.8 mph WNW2.9 kmh WNW 4.0 mph6.4 kmh 29.86 in1011.2 mb 0.10 in2.5 mm 0.00 in0.0 mm 0.51 in13.0 mm
01:54 PM 72.5°F22.5°C 71.3°F21.8°C 96% 1.9 mph W3.1 kmh W 4.0 mph6.4 kmh 29.86 in1011.2 mb 0.10 in2.5 mm 0.00 in0.0 mm 0.51 in13.0 mm
01:59 PM 72.7°F22.6°C 71.5°F21.9°C 96% 2.8 mph W4.5 kmh W 5.0 mph8.0 kmh 29.86 in1011.2 mb 0.11 in2.8 mm 0.12 in3.0 mm 0.52 in13.2 mm
02:04 PM 72.7°F22.6°C 71.5°F21.9°C 96% 1.6 mph WNW2.6 kmh WNW 5.0 mph8.0 kmh 29.85 in1010.8 mb 0.10 in2.5 mm 0.00 in0.0 mm 0.52 in13.2 mm
02:09 PM 72.7°F22.6°C 71.5°F21.9°C 96% 1.0 mph NW1.6 kmh NW 5.0 mph8.0 kmh 29.85 in1010.8 mb 0.11 in2.8 mm 0.12 in3.0 mm 0.53 in13.5 mm
02:14 PM 72.8°F22.7°C 71.6°F22.0°C 96% 1.3 mph W2.1 kmh W 5.0 mph8.0 kmh 29.84 in1010.5 mb 0.11 in2.8 mm 0.00 in0.0 mm 0.53 in13.5 mm
02:19 PM 72.7°F22.6°C 71.5°F21.9°C 96% 1.5 mph W2.4 kmh W 4.0 mph6.4 kmh 29.84 in1010.5 mb 0.08 in2.0 mm 0.00 in0.0 mm 0.53 in13.5 mm
02:24 PM 72.9°F22.7°C 71.7°F22.1°C 96% Calm Calm 4.0 mph6.4 kmh 29.83 in1010.2 mb 0.04 in1.0 mm 0.00 in0.0 mm 0.53 in13.5 mm
02:29 PM 73.0°F22.8°C 71.8°F22.1°C 96% Calm Calm 3.0 mph4.8 kmh 29.83 in1010.2 mb 0.03 in0.8 mm 0.00 in0.0 mm 0.53 in13.5 mm
02:34 PM 73.1°F22.8°C 71.9°F22.2°C 96% 1.0 mph WNW1.6 kmh WNW 3.0 mph4.8 kmh 29.83 in1010.2 mb 0.02 in0.5 mm 0.00 in0.0 mm 0.53 in13.5 mm
02:39 PM 73.1°F22.8°C 71.9°F22.2°C 96% 1.0 mph WNW1.6 kmh WNW 2.0 mph3.2 kmh 29.83 in1010.2 mb 0.02 in0.5 mm 0.00 in0.0 mm 0.53 in13.5 mm
02:44 PM 73.2°F22.9°C 72.0°F22.2°C 96% 1.1 mph W1.8 kmh W 3.0 mph4.8 kmh 29.82 in1009.8 mb 0.02 in0.5 mm 0.00 in0.0 mm 0.53 in13.5 mm
02:49 PM 73.7°F23.2°C 72.8°F22.7°C 97% 1.0 mph SW1.6 kmh SW 3.0 mph4.8 kmh 29.82 in1009.8 mb 0.02 in0.5 mm 0.00 in0.0 mm 0.53 in13.5 mm
02:54 PM 74.3°F23.5°C 73.4°F23.0°C 97% Calm Calm 3.0 mph4.8 kmh 29.81 in1009.5 mb 0.02 in0.5 mm 0.00 in0.0 mm 0.53 in13.5 mm
02:59 PM 74.8°F23.8°C 73.9°F23.3°C 97% 1.0 mph WSW1.6 kmh WSW 2.0 mph3.2 kmh 29.81 in1009.5 mb 0.01 in0.3 mm 0.00 in0.0 mm 0.53 in13.5 mm
03:04 PM 75.4°F24.1°C 74.5°F23.6°C 97% Calm Calm 1.0 mph1.6 kmh 29.82 in1009.8 mb 0.01 in0.3 mm 0.00 in0.0 mm 0.53 in13.5 mm
03:09 PM 75.7°F24.3°C 74.2°F23.4°C 95% Calm Calm 1.0 mph1.6 kmh 29.82 in1009.8 mb 0.00 in0.0 mm 0.00 in0.0 mm 0.53 in13.5 mm
03:14 PM 75.9°F24.4°C 74.3°F23.5°C 95% Calm Calm 1.0 mph1.6 kmh 29.82 in1009.8 mb 0.00 in0.0 mm 0.00 in0.0 mm 0.53 in13.5 mm
03:19 PM 76.0°F24.4°C 74.4°F23.6°C 95% 1.6 mph SW2.6 kmh SW 2.0 mph3.2 kmh 29.83 in1010.2 mb 0.00 in0.0 mm 0.00 in0.0 mm 0.53 in13.5 mm
03:24 PM 76.1°F24.5°C 74.5°F23.6°C 95% 1.2 mph SW1.9 kmh SW 2.0 mph3.2 kmh 29.83 in1010.2 mb 0.00 in0.0 mm 0.00 in0.0 mm 0.53 in13.5 mm
03:29 PM 75.9°F24.4°C 74.0°F23.3°C 94% 1.4 mph SW2.3 kmh SW 3.0 mph4.8 kmh 29.84 in1010.5 mb 0.00 in0.0 mm 0.00 in0.0 mm 0.53 in13.5 mm
03:34 PM 75.5°F24.2°C 73.6°F23.1°C 94% 1.3 mph SW2.1 kmh SW 3.0 mph4.8 kmh 29.83 in1010.2 mb 0.00 in0.0 mm 0.00 in0.0 mm 0.53 in13.5 mm
03:39 PM 75.4°F24.1°C 73.8°F23.2°C 95% 2.0 mph SW3.2 kmh SW 4.0 mph6.4 kmh 29.84 in1010.5 mb 0.00 in0.0 mm 0.00 in0.0 mm 0.53 in13.5 mm
03:44 PM 75.2°F24.0°C 73.7°F23.2°C 95% 1.0 mph SSE1.6 kmh SSE 4.0 mph6.4 kmh 29.83 in1010.2 mb 0.00 in0.0 mm 0.00 in0.0 mm 0.53 in13.5 mm
03:48 PM 75.2°F24.0°C 73.6°F23.1°C 95% 1.0 mph S1.6 kmh S 4.0 mph6.4 kmh 29.83 in1010.2 mb 0.00 in0.0 mm 0.00 in0.0 mm 0.53 in13.5 mm
03:53 PM 75.2°F24.0°C 73.7°F23.2°C 95% 1.5 mph S2.4 kmh S 4.0 mph6.4 kmh 29.83 in1010.2 mb 0.00 in0.0 mm 0.00 in0.0 mm 0.53 in13.5 mm
03:58 PM 75.1°F23.9°C 73.5°F23.1°C 95% 1.1 mph SSE1.8 kmh SSE 2.0 mph3.2 kmh 29.84 in1010.5 mb 0.00 in0.0 mm 0.00 in0.0 mm 0.53 in13.5 mm
04:03 PM 75.0°F23.9°C 73.8°F23.2°C 96% Calm Calm 3.0 mph4.8 kmh 29.84 in1010.5 mb 0.00 in0.0 mm 0.00 in0.0 mm 0.53 in13.5 mm
04:08 PM 75.0°F23.9°C 73.8°F23.2°C 96% 1.0 mph SE1.6 kmh SE 3.0 mph4.8 kmh 29.84 in1010.5 mb 0.00 in0.0 mm 0.00 in0.0 mm 0.53 in13.5 mm
04:13 PM 74.9°F23.8°C 73.3°F22.9°C 95% 2.5 mph SE4.0 kmh SE 4.0 mph6.4 kmh 29.85 in1010.8 mb 0.00 in0.0 mm 0.00 in0.0 mm 0.53 in13.5 mm
04:18 PM 74.8°F23.8°C 73.6°F23.1°C 96% 1.0 mph SE1.6 kmh SE 4.0 mph6.4 kmh 29.85 in1010.8 mb 0.00 in0.0 mm 0.00 in0.0 mm 0.53 in13.5 mm
04:23 PM 74.7°F23.7°C 73.5°F23.1°C 96% Calm Calm 4.0 mph6.4 kmh 29.84 in1010.5 mb 0.00 in0.0 mm 0.00 in0.0 mm 0.53 in13.5 mm
04:28 PM 74.7°F23.7°C 73.5°F23.1°C 96% Calm Calm 4.0 mph6.4 kmh 29.84 in1010.5 mb 0.00 in0.0 mm 0.00 in0.0 mm 0.53 in13.5 mm
04:33 PM 74.8°F23.8°C 73.6°F23.1°C 96% Calm Calm 2.0 mph3.2 kmh 29.85 in1010.8 mb 0.00 in0.0 mm 0.00 in0.0 mm 0.53 in13.5 mm
04:38 PM 74.9°F23.8°C 73.7°F23.2°C 96% Calm Calm 1.0 mph1.6 kmh 29.85 in1010.8 mb 0.00 in0.0 mm 0.00 in0.0 mm 0.53 in13.5 mm
04:43 PM 74.8°F23.8°C 73.6°F23.1°C 96% 1.2 mph SW1.9 kmh SW 2.0 mph3.2 kmh 29.85 in1010.8 mb 0.00 in0.0 mm 0.00 in0.0 mm 0.53 in13.5 mm
04:48 PM 74.7°F23.7°C 73.5°F23.1°C 96% Calm Calm 2.0 mph3.2 kmh 29.85 in1010.8 mb 0.00 in0.0 mm 0.00 in0.0 mm 0.53 in13.5 mm
04:53 PM 74.6°F23.7°C 73.4°F23.0°C 96% 1.0 mph SE1.6 kmh SE 2.0 mph3.2 kmh 29.85 in1010.8 mb 0.00 in0.0 mm 0.00 in0.0 mm 0.53 in13.5 mm
04:58 PM 74.6°F23.7°C 73.4°F23.0°C 96% 1.0 mph S1.6 kmh S 2.0 mph3.2 kmh 29.85 in1010.8 mb 0.01 in0.3 mm 0.12 in3.0 mm 0.54 in13.7 mm
05:03 PM 74.6°F23.7°C 73.4°F23.0°C 96% 1.2 mph SE1.9 kmh SE 2.0 mph3.2 kmh 29.85 in1010.8 mb 0.01 in0.3 mm 0.00 in0.0 mm 0.54 in13.7 mm
05:08 PM 74.5°F23.6°C 73.3°F22.9°C 96% 1.3 mph SW2.1 kmh SW 3.0 mph4.8 kmh 29.86 in1011.2 mb 0.01 in0.3 mm 0.00 in0.0 mm 0.54 in13.7 mm
05:13 PM 74.4°F23.6°C 73.2°F22.9°C 96% 1.7 mph SE2.7 kmh SE 3.0 mph4.8 kmh 29.85 in1010.8 mb 0.01 in0.3 mm 0.00 in0.0 mm 0.54 in13.7 mm
05:18 PM 74.2°F23.4°C 73.0°F22.8°C 96% 1.7 mph SE2.7 kmh SE 3.0 mph4.8 kmh 29.85 in1010.8 mb 0.01 in0.3 mm 0.00 in0.0 mm 0.54 in13.7 mm
05:23 PM 74.2°F23.4°C 73.0°F22.8°C 96% 1.0 mph SE1.6 kmh SE 3.0 mph4.8 kmh 29.85 in1010.8 mb 0.01 in0.3 mm 0.00 in0.0 mm 0.54 in13.7 mm
05:28 PM 74.1°F23.4°C 72.9°F22.7°C 96% 1.0 mph SSE1.6 kmh SSE 3.0 mph4.8 kmh 29.85 in1010.8 mb 0.01 in0.3 mm 0.00 in0.0 mm 0.54 in13.7 mm
05:33 PM 73.9°F23.3°C 72.7°F22.6°C 96% 1.0 mph WSW1.6 kmh WSW 3.0 mph4.8 kmh 29.85 in1010.8 mb 0.01 in0.3 mm 0.00 in0.0 mm 0.54 in13.7 mm
05:38 PM 73.8°F23.2°C 72.6°F22.6°C 96% 1.6 mph SW2.6 kmh SW 3.0 mph4.8 kmh 29.85 in1010.8 mb 0.01 in0.3 mm 0.00 in0.0 mm 0.54 in13.7 mm
05:43 PM 73.6°F23.1°C 72.4°F22.4°C 96% 1.8 mph S2.9 kmh S 5.0 mph8.0 kmh 29.85 in1010.8 mb 0.01 in0.3 mm 0.00 in0.0 mm 0.54 in13.7 mm
05:48 PM 73.5°F23.1°C 72.3°F22.4°C 96% 1.2 mph SSW1.9 kmh SSW 5.0 mph8.0 kmh 29.85 in1010.8 mb 0.01 in0.3 mm 0.00 in0.0 mm 0.54 in13.7 mm
05:53 PM 73.5°F23.1°C 72.6°F22.6°C 97% 2.0 mph SW3.2 kmh SW 5.0 mph8.0 kmh 29.85 in1010.8 mb 0.01 in0.3 mm 0.00 in0.0 mm 0.54 in13.7 mm
05:58 PM 73.4°F23.0°C 72.5°F22.5°C 97% 1.0 mph SW1.6 kmh SW 4.0 mph6.4 kmh 29.85 in1010.8 mb 0.00 in0.0 mm 0.00 in0.0 mm 0.54 in13.7 mm
06:03 PM 73.5°F23.1°C 72.6°F22.6°C 97% 1.0 mph SW1.6 kmh SW 4.0 mph6.4 kmh 29.85 in1010.8 mb 0.00 in0.0 mm 0.00 in0.0 mm 0.54 in13.7 mm
06:08 PM 73.5°F23.1°C 72.6°F22.6°C 97% 1.1 mph S1.8 kmh S 4.0 mph6.4 kmh 29.85 in1010.8 mb 0.00 in0.0 mm 0.00 in0.0 mm 0.54 in13.7 mm
06:13 PM 73.5°F23.1°C 72.6°F22.6°C 97% 1.7 mph SSE2.7 kmh SSE 3.0 mph4.8 kmh 29.85 in1010.8 mb 0.00 in0.0 mm 0.00 in0.0 mm 0.54 in13.7 mm
06:18 PM 73.6°F23.1°C 72.7°F22.6°C 97% 1.5 mph WSW2.4 kmh WSW 3.0 mph4.8 kmh 29.85 in1010.8 mb 0.00 in0.0 mm 0.00 in0.0 mm 0.54 in13.7 mm
06:23 PM 73.7°F23.2°C 72.8°F22.7°C 97% 2.0 mph SW3.2 kmh SW 5.0 mph8.0 kmh 29.85 in1010.8 mb 0.00 in0.0 mm 0.00 in0.0 mm 0.54 in13.7 mm
06:28 PM 73.8°F23.2°C 72.9°F22.7°C 97% 1.0 mph SW1.6 kmh SW 5.0 mph8.0 kmh 29.86 in1011.2 mb 0.00 in0.0 mm 0.00 in0.0 mm 0.54 in13.7 mm
06:33 PM 73.8°F23.2°C 72.9°F22.7°C 97% 1.8 mph SSW2.9 kmh SSW 5.0 mph8.0 kmh 29.86 in1011.2 mb 0.00 in0.0 mm 0.00 in0.0 mm 0.54 in13.7 mm
06:38 PM 73.8°F23.2°C 72.9°F22.7°C 97% 1.4 mph SW2.3 kmh SW 5.0 mph8.0 kmh 29.86 in1011.2 mb 0.00 in0.0 mm 0.00 in0.0 mm 0.54 in13.7 mm
06:43 PM 73.8°F23.2°C 72.9°F22.7°C 97% 1.2 mph SSE1.9 kmh SSE 7.0 mph11.3 kmh 29.86 in1011.2 mb 0.00 in0.0 mm 0.00 in0.0 mm 0.54 in13.7 mm
06:48 PM 73.9°F23.3°C 73.0°F22.8°C 97% 1.6 mph SW2.6 kmh SW 7.0 mph11.3 kmh 29.86 in1011.2 mb 0.00 in0.0 mm 0.00 in0.0 mm 0.54 in13.7 mm
06:53 PM 73.8°F23.2°C 72.9°F22.7°C 97% 2.8 mph SSW4.5 kmh SSW 7.0 mph11.3 kmh 29.86 in1011.2 mb 0.00 in0.0 mm 0.00 in0.0 mm 0.54 in13.7 mm
06:58 PM 73.8°F23.2°C 72.9°F22.7°C 97% 1.3 mph SW2.1 kmh SW 7.0 mph11.3 kmh 29.86 in1011.2 mb 0.00 in0.0 mm 0.00 in0.0 mm 0.54 in13.7 mm
07:03 PM 73.9°F23.3°C 73.0°F22.8°C 97% 1.6 mph SW2.6 kmh SW 7.0 mph11.3 kmh 29.86 in1011.2 mb 0.00 in0.0 mm 0.00 in0.0 mm 0.54 in13.7 mm
07:08 PM 74.0°F23.3°C 73.1°F22.8°C 97% 1.0 mph SW1.6 kmh SW 7.0 mph11.3 kmh 29.86 in1011.2 mb 0.00 in0.0 mm 0.00 in0.0 mm 0.54 in13.7 mm
07:13 PM 74.0°F23.3°C 73.1°F22.8°C 97% 1.3 mph WSW2.1 kmh WSW 5.0 mph8.0 kmh 29.87 in1011.5 mb 0.00 in0.0 mm 0.00 in0.0 mm 0.54 in13.7 mm
07:18 PM 74.0°F23.3°C 73.1°F22.8°C 97% Calm Calm 4.0 mph6.4 kmh 29.87 in1011.5 mb 0.00 in0.0 mm 0.00 in0.0 mm 0.54 in13.7 mm
07:23 PM 73.9°F23.3°C 73.0°F22.8°C 97% 1.8 mph SW2.9 kmh SW 4.0 mph6.4 kmh 29.87 in1011.5 mb 0.00 in0.0 mm 0.00 in0.0 mm 0.54 in13.7 mm
07:28 PM 73.9°F23.3°C 73.0°F22.8°C 97% Calm Calm 5.0 mph8.0 kmh 29.87 in1011.5 mb 0.00 in0.0 mm 0.00 in0.0 mm 0.54 in13.7 mm
07:33 PM 74.0°F23.3°C 73.1°F22.8°C 97% 1.0 mph SW1.6 kmh SW 5.0 mph8.0 kmh 29.87 in1011.5 mb 0.00 in0.0 mm 0.00 in0.0 mm 0.54 in13.7 mm
07:38 PM 74.0°F23.3°C 73.1°F22.8°C 97% 1.3 mph WSW2.1 kmh WSW 5.0 mph8.0 kmh 29.88 in1011.9 mb 0.00 in0.0 mm 0.00 in0.0 mm 0.54 in13.7 mm
07:43 PM 74.1°F23.4°C 73.2°F22.9°C 97% Calm Calm 5.0 mph8.0 kmh 29.88 in1011.9 mb 0.00 in0.0 mm 0.00 in0.0 mm 0.54 in13.7 mm
07:48 PM 74.1°F23.4°C 73.2°F22.9°C 97% 1.0 mph SW1.6 kmh SW 2.0 mph3.2 kmh 29.87 in1011.5 mb 0.00 in0.0 mm 0.00 in0.0 mm 0.54 in13.7 mm
07:53 PM 74.0°F23.3°C 73.1°F22.8°C 97% 1.3 mph SW2.1 kmh SW 2.0 mph3.2 kmh 29.88 in1011.9 mb 0.00 in0.0 mm 0.00 in0.0 mm 0.54 in13.7 mm
07:58 PM 74.0°F23.3°C 73.1°F22.8°C 97% 1.2 mph SW1.9 kmh SW 2.0 mph3.2 kmh 29.88 in1011.9 mb 0.00 in0.0 mm 0.00 in0.0 mm 0.54 in13.7 mm
08:03 PM 74.0°F23.3°C 73.1°F22.8°C 97% 1.3 mph SW2.1 kmh SW 3.0 mph4.8 kmh 29.88 in1011.9 mb 0.00 in0.0 mm 0.00 in0.0 mm 0.54 in13.7 mm
08:08 PM 73.9°F23.3°C 73.0°F22.8°C 97% 1.3 mph SW2.1 kmh SW 3.0 mph4.8 kmh 29.88 in1011.9 mb 0.00 in0.0 mm 0.00 in0.0 mm 0.54 in13.7 mm
08:13 PM 73.9°F23.3°C 73.0°F22.8°C 97% 1.0 mph WSW1.6 kmh WSW 3.0 mph4.8 kmh 29.88 in1011.9 mb 0.00 in0.0 mm 0.00 in0.0 mm 0.54 in13.7 mm
08:18 PM 73.8°F23.2°C 72.9°F22.7°C 97% 1.0 mph SW1.6 kmh SW 3.0 mph4.8 kmh 29.88 in1011.9 mb 0.00 in0.0 mm 0.00 in0.0 mm 0.54 in13.7 mm
08:23 PM 73.8°F23.2°C 72.9°F22.7°C 97% Calm Calm 2.0 mph3.2 kmh 29.89 in1012.2 mb 0.00 in0.0 mm 0.00 in0.0 mm 0.54 in13.7 mm
08:28 PM 73.7°F23.2°C 72.8°F22.7°C 97% 1.1 mph WSW1.8 kmh WSW 2.0 mph3.2 kmh 29.89 in1012.2 mb 0.00 in0.0 mm 0.00 in0.0 mm 0.54 in13.7 mm
08:33 PM 73.7°F23.2°C 72.8°F22.7°C 97% 1.0 mph WSW1.6 kmh WSW 2.0 mph3.2 kmh 29.89 in1012.2 mb 0.00 in0.0 mm 0.00 in0.0 mm 0.54 in13.7 mm
08:38 PM 73.7°F23.2°C 72.8°F22.7°C 97% 1.5 mph WSW2.4 kmh WSW 2.0 mph3.2 kmh 29.89 in1012.2 mb 0.00 in0.0 mm 0.00 in0.0 mm 0.54 in13.7 mm
08:43 PM 73.7°F23.2°C 72.8°F22.7°C 97% Calm Calm 2.0 mph3.2 kmh 29.89 in1012.2 mb 0.00 in0.0 mm 0.00 in0.0 mm 0.54 in13.7 mm
08:47 PM 73.7°F23.2°C 72.8°F22.7°C 97% Calm Calm 2.0 mph3.2 kmh 29.89 in1012.2 mb 0.00 in0.0 mm 0.00 in0.0 mm 0.54 in13.7 mm
08:52 PM 73.8°F23.2°C 72.9°F22.7°C 97% Calm Calm 2.0 mph3.2 kmh 29.90 in1012.5 mb 0.00 in0.0 mm 0.00 in0.0 mm 0.54 in13.7 mm
08:57 PM 73.8°F23.2°C 72.9°F22.7°C 97% Calm Calm 1.0 mph1.6 kmh 29.90 in1012.5 mb 0.00 in0.0 mm 0.00 in0.0 mm 0.54 in13.7 mm
09:02 PM 73.9°F23.3°C 73.0°F22.8°C 97% 2.2 mph NE3.5 kmh NE 4.0 mph6.4 kmh 29.90 in1012.5 mb 0.00 in0.0 mm 0.00 in0.0 mm 0.54 in13.7 mm
09:07 PM 73.8°F23.2°C 72.9°F22.7°C 97% 2.1 mph ENE3.4 kmh ENE 5.0 mph8.0 kmh 29.91 in1012.9 mb 0.00 in0.0 mm 0.00 in0.0 mm 0.54 in13.7 mm
09:12 PM 73.8°F23.2°C 72.9°F22.7°C 97% 1.6 mph NE2.6 kmh NE 5.0 mph8.0 kmh 29.90 in1012.5 mb 0.00 in0.0 mm 0.00 in0.0 mm 0.54 in13.7 mm
09:17 PM 73.8°F23.2°C 72.9°F22.7°C 97% 1.1 mph NE1.8 kmh NE 5.0 mph8.0 kmh 29.90 in1012.5 mb 0.00 in0.0 mm 0.00 in0.0 mm 0.54 in13.7 mm
09:22 PM 73.9°F23.3°C 73.0°F22.8°C 97% Calm Calm 5.0 mph8.0 kmh 29.90 in1012.5 mb 0.00 in0.0 mm 0.00 in0.0 mm 0.54 in13.7 mm
09:27 PM 73.9°F23.3°C 73.0°F22.8°C 97% Calm Calm 5.0 mph8.0 kmh 29.91 in1012.9 mb 0.00 in0.0 mm 0.00 in0.0 mm 0.54 in13.7 mm
09:32 PM 73.8°F23.2°C 72.9°F22.7°C 97% 1.0 mph NE1.6 kmh NE 2.0 mph3.2 kmh 29.91 in1012.9 mb 0.00 in0.0 mm 0.00 in0.0 mm 0.54 in13.7 mm
09:37 PM 73.8°F23.2°C 72.9°F22.7°C 97% Calm Calm 2.0 mph3.2 kmh 29.91 in1012.9 mb 0.00 in0.0 mm 0.00 in0.0 mm 0.54 in13.7 mm
09:42 PM 73.7°F23.2°C 72.8°F22.7°C 97% 1.0 mph NE1.6 kmh NE 1.0 mph1.6 kmh 29.91 in1012.9 mb 0.00 in0.0 mm 0.00 in0.0 mm 0.54 in13.7 mm
09:47 PM 73.6°F23.1°C 72.7°F22.6°C 97% 1.5 mph NE2.4 kmh NE 3.0 mph4.8 kmh 29.91 in1012.9 mb 0.00 in0.0 mm 0.00 in0.0 mm 0.54 in13.7 mm
09:52 PM 73.4°F23.0°C 72.5°F22.5°C 97% 8.3 mph NE13.4 kmh NE 11.0 mph17.7 kmh 29.92 in1013.2 mb 0.00 in0.0 mm 0.00 in0.0 mm 0.54 in13.7 mm
09:57 PM 72.6°F22.6°C 71.4°F21.9°C 96% 10.6 mph NE17.1 kmh NE 19.0 mph30.6 kmh 29.93 in1013.5 mb 0.00 in0.0 mm 0.00 in0.0 mm 0.54 in13.7 mm
10:02 PM 72.1°F22.3°C 70.2°F21.2°C 94% 8.4 mph NE13.5 kmh NE 19.0 mph30.6 kmh 29.93 in1013.5 mb 0.00 in0.0 mm 0.00 in0.0 mm 0.54 in13.7 mm
10:07 PM 71.8°F22.1°C 69.6°F20.9°C 93% 7.8 mph NE12.6 kmh NE 19.0 mph30.6 kmh 29.92 in1013.2 mb 0.00 in0.0 mm 0.00 in0.0 mm 0.54 in13.7 mm
10:12 PM 71.5°F21.9°C 69.4°F20.8°C 93% 8.8 mph NE14.2 kmh NE 19.0 mph30.6 kmh 29.93 in1013.5 mb 0.00 in0.0 mm 0.00 in0.0 mm 0.54 in13.7 mm
10:17 PM 71.2°F21.8°C 69.1°F20.6°C 93% 8.8 mph NE14.2 kmh NE 19.0 mph30.6 kmh 29.93 in1013.5 mb 0.00 in0.0 mm 0.00 in0.0 mm 0.54 in13.7 mm
10:22 PM 71.0°F21.7°C 68.5°F20.3°C 92% 6.5 mph NE10.5 kmh NE 19.0 mph30.6 kmh 29.93 in1013.5 mb 0.00 in0.0 mm 0.00 in0.0 mm 0.54 in13.7 mm
10:27 PM 70.9°F21.6°C 68.7°F20.4°C 93% 5.4 mph ENE8.7 kmh ENE 19.0 mph30.6 kmh 29.93 in1013.5 mb 0.00 in0.0 mm 0.00 in0.0 mm 0.54 in13.7 mm
10:32 PM 70.8°F21.6°C 68.6°F20.3°C 93% 6.2 mph ENE10.0 kmh ENE 17.0 mph27.4 kmh 29.93 in1013.5 mb 0.00 in0.0 mm 0.00 in0.0 mm 0.54 in13.7 mm
10:37 PM 70.7°F21.5°C 68.5°F20.3°C 93% 7.6 mph NE12.2 kmh NE 15.0 mph24.1 kmh 29.93 in1013.5 mb 0.00 in0.0 mm 0.00 in0.0 mm 0.54 in13.7 mm
10:42 PM 70.6°F21.4°C 68.4°F20.2°C 93% 5.4 mph ENE8.7 kmh ENE 16.0 mph25.7 kmh 29.93 in1013.5 mb 0.00 in0.0 mm 0.00 in0.0 mm 0.54 in13.7 mm
10:47 PM 70.6°F21.4°C 68.4°F20.2°C 93% 4.2 mph ENE6.8 kmh ENE 16.0 mph25.7 kmh 29.94 in1013.9 mb 0.00 in0.0 mm 0.00 in0.0 mm 0.54 in13.7 mm
10:52 PM 70.5°F21.4°C 68.1°F20.1°C 92% 5.6 mph NE9.0 kmh NE 16.0 mph25.7 kmh 29.94 in1013.9 mb 0.00 in0.0 mm 0.00 in0.0 mm 0.54 in13.7 mm
10:57 PM 70.4°F21.3°C 67.9°F19.9°C 92% 6.1 mph ENE9.8 kmh ENE 16.0 mph25.7 kmh 29.94 in1013.9 mb 0.00 in0.0 mm 0.00 in0.0 mm 0.54 in13.7 mm
11:02 PM 70.3°F21.3°C 67.5°F19.7°C 91% 8.0 mph NE12.9 kmh NE 14.0 mph22.5 kmh 29.94 in1013.9 mb 0.00 in0.0 mm 0.00 in0.0 mm 0.54 in13.7 mm
11:07 PM 70.2°F21.2°C 67.1°F19.5°C 90% 4.5 mph NE7.2 kmh NE 14.0 mph22.5 kmh 29.94 in1013.9 mb 0.00 in0.0 mm 0.00 in0.0 mm 0.53 in13.5 mm
11:12 PM 70.1°F21.2°C 66.7°F19.3°C 89% 6.6 mph ENE10.6 kmh ENE 14.0 mph22.5 kmh 29.94 in1013.9 mb 0.00 in0.0 mm 0.00 in0.0 mm 0.53 in13.5 mm
11:17 PM 69.9°F21.1°C 65.9°F18.8°C 87% 6.9 mph E11.1 kmh E 14.0 mph22.5 kmh 29.94 in1013.9 mb 0.00 in0.0 mm 0.00 in0.0 mm 0.53 in13.5 mm
11:22 PM 69.7°F20.9°C 65.7°F18.7°C 87% 7.2 mph NE11.6 kmh NE 14.0 mph22.5 kmh 29.94 in1013.9 mb 0.00 in0.0 mm 0.00 in0.0 mm 0.53 in13.5 mm
11:27 PM 69.4°F20.8°C 65.0°F18.3°C 86% 9.0 mph ENE14.5 kmh ENE 15.0 mph24.1 kmh 29.94 in1013.9 mb 0.00 in0.0 mm 0.00 in0.0 mm 0.53 in13.5 mm
11:32 PM 69.1°F20.6°C 64.7°F18.2°C 86% 4.8 mph NE7.7 kmh NE 15.0 mph24.1 kmh 29.94 in1013.9 mb 0.00 in0.0 mm 0.00 in0.0 mm 0.53 in13.5 mm
11:37 PM 68.9°F20.5°C 64.6°F18.1°C 86% 2.6 mph ENE4.2 kmh ENE 15.0 mph24.1 kmh 29.94 in1013.9 mb 0.00 in0.0 mm 0.00 in0.0 mm 0.53 in13.5 mm
11:42 PM 68.8°F20.4°C 64.5°F18.1°C 86% 3.0 mph ENE4.8 kmh ENE 15.0 mph24.1 kmh 29.95 in1014.2 mb 0.00 in0.0 mm 0.00 in0.0 mm 0.53 in13.5 mm
11:47 PM 68.8°F20.4°C 64.4°F18.0°C 86% 4.3 mph NE6.9 kmh NE 13.0 mph20.9 kmh 29.95 in1014.2 mb 0.00 in0.0 mm 0.00 in0.0 mm 0.53 in13.5 mm
11:52 PM 68.7°F20.4°C 64.4°F18.0°C 86% 3.4 mph NE5.5 kmh NE 10.0 mph16.1 kmh 29.95 in1014.2 mb 0.00 in0.0 mm 0.00 in0.0 mm 0.53 in13.5 mm
11:57 PM 68.7°F20.4°C 64.0°F17.8°C 85% 4.5 mph ENE7.2 kmh ENE 10.0 mph16.1 kmh 29.95 in1014.2 mb 0.00 in0.0 mm 0.00 in0.0 mm 0.53 in13.5 mm